sensor_id;sensor_type;location;lat;lon;timestamp;pressure;altitude;pressure_sealevel;temperature;humidity
21781;BME280;52576;53.614;9.894;2023-04-05T00:00:04;102377.91;;;-0.69;69.70
21781;BME280;52576;53.614;9.894;2023-04-05T00:02:11;102367.59;;;-0.72;69.79
21781;BME280;52576;53.614;9.894;2023-04-05T00:04:15;102372.72;;;-0.72;69.80
21781;BME280;52576;53.614;9.894;2023-04-05T00:06:22;102367.56;;;-0.75;69.93
21781;BME280;52576;53.614;9.894;2023-04-05T00:08:27;102365.84;;;-0.76;69.93
21781;BME280;52576;53.614;9.894;2023-04-05T00:10:30;102367.56;;;-0.78;70.05
21781;BME280;52576;53.614;9.894;2023-04-05T00:12:33;102369.28;;;-0.82;69.95
21781;BME280;52576;53.614;9.894;2023-04-05T00:14:37;102358.97;;;-0.83;70.12
21781;BME280;52576;53.614;9.894;2023-04-05T00:16:41;102362.38;;;-0.84;70.36
21781;BME280;52576;53.614;9.894;2023-04-05T00:18:45;102369.25;;;-0.86;70.71
21781;BME280;52576;53.614;9.894;2023-04-05T00:20:53;102367.50;;;-0.87;70.79
21781;BME280;52576;53.614;9.894;2023-04-05T00:22:56;102369.22;;;-0.88;71.07
21781;BME280;52576;53.614;9.894;2023-04-05T00:24:59;102370.94;;;-0.88;71.08
21781;BME280;52576;53.614;9.894;2023-04-05T00:27:02;102365.78;;;-0.88;71.28
21781;BME280;52576;53.614;9.894;2023-04-05T00:29:06;102372.66;;;-0.87;71.21
21781;BME280;52576;53.614;9.894;2023-04-05T00:31:10;102371.81;;;-0.88;71.26
21781;BME280;52576;53.614;9.894;2023-04-05T00:33:15;102365.78;;;-0.88;71.56
21781;BME280;52576;53.614;9.894;2023-04-05T00:35:19;102366.63;;;-0.91;71.57
21781;BME280;52576;53.614;9.894;2023-04-05T00:37:22;102364.91;;;-0.92;71.79
21781;BME280;52576;53.614;9.894;2023-04-05T00:39:26;102370.91;;;-0.94;72.02
21781;BME280;52576;53.614;9.894;2023-04-05T00:41:29;102376.03;;;-0.97;72.19
21781;BME280;52576;53.614;9.894;2023-04-05T00:43:32;102364.84;;;-0.99;72.20
21781;BME280;52576;53.614;9.894;2023-04-05T00:45:36;102369.97;;;-1.01;72.23
21781;BME280;52576;53.614;9.894;2023-04-05T00:47:41;102370.81;;;-1.04;72.66
21781;BME280;52576;53.614;9.894;2023-04-05T00:49:46;102370.00;;;-1.04;72.52
21781;BME280;52576;53.614;9.894;2023-04-05T00:51:50;102369.13;;;-1.05;72.78
21781;BME280;52576;53.614;9.894;2023-04-05T00:53:53;102362.25;;;-1.06;72.97
21781;BME280;52576;53.614;9.894;2023-04-05T00:55:57;102361.38;;;-1.08;73.01
21781;BME280;52576;53.614;9.894;2023-04-05T00:58:00;102367.38;;;-1.09;73.15
21781;BME280;52576;53.614;9.894;2023-04-05T01:00:05;102357.94;;;-1.10;73.09
21781;BME280;52576;53.614;9.894;2023-04-05T01:02:14;102359.66;;;-1.10;73.09
21781;BME280;52576;53.614;9.894;2023-04-05T01:04:21;102361.38;;;-1.11;73.34
21781;BME280;52576;53.614;9.894;2023-04-05T01:06:46;102358.78;;;-1.11;73.40
21781;BME280;52576;53.614;9.894;2023-04-05T01:08:59;102353.66;;;-1.11;73.53
21781;BME280;52576;53.614;9.894;2023-04-05T01:11:04;102349.34;;;-1.12;73.45
21781;BME280;52576;53.614;9.894;2023-04-05T01:13:08;102351.06;;;-1.14;73.62
21781;BME280;52576;53.614;9.894;2023-04-05T01:15:11;102351.03;;;-1.17;73.63
21781;BME280;52576;53.614;9.894;2023-04-05T01:17:15;102355.31;;;-1.17;73.83
21781;BME280;52576;53.614;9.894;2023-04-05T01:19:26;102345.00;;;-1.19;73.95
21781;BME280;52576;53.614;9.894;2023-04-05T01:22:04;102341.56;;;-1.21;73.98
21781;BME280;52576;53.614;9.894;2023-04-05T01:24:29;102343.25;;;-1.23;74.18
21781;BME280;52576;53.614;9.894;2023-04-05T01:26:59;102340.69;;;-1.24;74.20
21781;BME280;52576;53.614;9.894;2023-04-05T01:31:46;102337.25;;;-1.25;74.57
21781;BME280;52576;53.614;9.894;2023-04-05T01:33:55;102328.66;;;-1.27;74.58
21781;BME280;52576;53.614;9.894;2023-04-05T01:36:05;102328.66;;;-1.27;74.63
21781;BME280;52576;53.614;9.894;2023-04-05T01:38:16;102332.06;;;-1.28;74.66
21781;BME280;52576;53.614;9.894;2023-04-05T01:40:20;102324.38;;;-1.31;74.75
21781;BME280;52576;53.614;9.894;2023-04-05T01:42:25;102323.50;;;-1.31;74.54
21781;BME280;52576;53.614;9.894;2023-04-05T01:44:28;102321.78;;;-1.34;74.65
21781;BME280;52576;53.614;9.894;2023-04-05T01:46:32;102314.03;;;-1.37;74.66
21781;BME280;52576;53.614;9.894;2023-04-05T01:48:37;102313.13;;;-1.41;74.87
21781;BME280;52576;53.614;9.894;2023-04-05T01:50:40;102316.56;;;-1.42;74.82
21781;BME280;52576;53.614;9.894;2023-04-05T01:52:44;102312.25;;;-1.43;74.83
21781;BME280;52576;53.614;9.894;2023-04-05T01:54:47;102307.97;;;-1.45;74.84
21781;BME280;52576;53.614;9.894;2023-04-05T01:56:50;102309.66;;;-1.46;74.61
21781;BME280;52576;53.614;9.894;2023-04-05T01:58:54;102312.22;;;-1.47;74.77
21781;BME280;52576;53.614;9.894;2023-04-05T02:00:57;102310.50;;;-1.48;74.58
21781;BME280;52576;53.614;9.894;2023-04-05T02:03:01;102308.78;;;-1.51;74.70
21781;BME280;52576;53.614;9.894;2023-04-05T02:05:07;102313.06;;;-1.51;74.83
21781;BME280;52576;53.614;9.894;2023-04-05T02:07:10;102308.75;;;-1.52;74.94
21781;BME280;52576;53.614;9.894;2023-04-05T02:09:15;102312.19;;;-1.52;75.16
21781;BME280;52576;53.614;9.894;2023-04-05T02:11:19;102303.63;;;-1.52;75.24
21781;BME280;52576;53.614;9.894;2023-04-05T02:13:23;102303.63;;;-1.52;75.29
21781;BME280;52576;53.614;9.894;2023-04-05T02:15:26;102301.03;;;-1.54;75.33
21781;BME280;52576;53.614;9.894;2023-04-05T02:17:31;102298.44;;;-1.55;75.70
21781;BME280;52576;53.614;9.894;2023-04-05T02:19:40;102291.63;;;-1.56;75.77
21781;BME280;52576;53.614;9.894;2023-04-05T02:21:48;102295.88;;;-1.58;75.67
21781;BME280;52576;53.614;9.894;2023-04-05T02:23:53;102301.88;;;-1.59;75.70
21781;BME280;52576;53.614;9.894;2023-04-05T02:25:56;102296.69;;;-1.62;75.63
21781;BME280;52576;53.614;9.894;2023-04-05T02:28:00;102302.69;;;-1.63;75.74
21781;BME280;52576;53.614;9.894;2023-04-05T02:30:04;102293.25;;;-1.64;75.86
21781;BME280;52576;53.614;9.894;2023-04-05T02:32:09;102298.41;;;-1.64;75.59
21781;BME280;52576;53.614;9.894;2023-04-05T02:34:13;102300.09;;;-1.66;75.78
21781;BME280;52576;53.614;9.894;2023-04-05T02:36:17;102300.09;;;-1.68;75.68
21781;BME280;52576;53.614;9.894;2023-04-05T02:38:21;102300.06;;;-1.69;75.51
21781;BME280;52576;53.614;9.894;2023-04-05T02:40:25;102298.34;;;-1.71;75.71
21781;BME280;52576;53.614;9.894;2023-04-05T02:42:28;102300.03;;;-1.73;75.60
21781;BME280;52576;53.614;9.894;2023-04-05T02:44:32;102292.31;;;-1.74;75.87
21781;BME280;52576;53.614;9.894;2023-04-05T02:46:35;102298.31;;;-1.74;75.96
21781;BME280;52576;53.614;9.894;2023-04-05T02:48:39;102295.75;;;-1.72;75.82
21781;BME280;52576;53.614;9.894;2023-04-05T02:50:46;102293.19;;;-1.74;76.01
21781;BME280;52576;53.614;9.894;2023-04-05T02:52:50;102293.19;;;-1.74;76.08
21781;BME280;52576;53.614;9.894;2023-04-05T02:54:55;102295.72;;;-1.75;75.85
21781;BME280;52576;53.614;9.894;2023-04-05T02:57:03;102299.16;;;-1.76;76.13
21781;BME280;52576;53.614;9.894;2023-04-05T02:59:17;102293.16;;;-1.77;75.93
21781;BME280;52576;53.614;9.894;2023-04-05T03:01:22;102293.13;;;-1.80;76.11
21781;BME280;52576;53.614;9.894;2023-04-05T03:03:25;102287.97;;;-1.80;76.15
21781;BME280;52576;53.614;9.894;2023-04-05T03:05:30;102287.13;;;-1.80;76.23
21781;BME280;52576;53.614;9.894;2023-04-05T03:07:33;102287.09;;;-1.82;76.13
21781;BME280;52576;53.614;9.894;2023-04-05T03:09:40;102287.09;;;-1.82;76.24
21781;BME280;52576;53.614;9.894;2023-04-05T03:11:46;102283.69;;;-1.84;76.31
21781;BME280;52576;53.614;9.894;2023-04-05T03:13:50;102287.13;;;-1.83;76.35
21781;BME280;52576;53.614;9.894;2023-04-05T03:16:09;102289.69;;;-1.85;76.42
21781;BME280;52576;53.614;9.894;2023-04-05T03:18:15;102285.38;;;-1.86;76.39
21781;BME280;52576;53.614;9.894;2023-04-05T03:20:19;102289.66;;;-1.88;76.34
21781;BME280;52576;53.614;9.894;2023-04-05T03:22:23;102286.19;;;-1.90;76.25
21781;BME280;52576;53.614;9.894;2023-04-05T03:24:29;102280.19;;;-1.92;76.55
21781;BME280;52576;53.614;9.894;2023-04-05T03:26:36;102282.75;;;-1.92;76.57
21781;BME280;52576;53.614;9.894;2023-04-05T03:28:41;102265.59;;;-1.93;76.63
21781;BME280;52576;53.614;9.894;2023-04-05T03:30:47;102275.03;;;-1.92;76.82
21781;BME280;52576;53.614;9.894;2023-04-05T03:32:53;102278.50;;;-1.90;76.94
21781;BME280;52576;53.614;9.894;2023-04-05T03:35:11;102277.63;;;-1.89;76.78
21781;BME280;52576;53.614;9.894;2023-04-05T03:37:19;102272.50;;;-1.89;77.00
21781;BME280;52576;53.614;9.894;2023-04-05T03:39:33;102273.34;;;-1.90;76.97
21781;BME280;52576;53.614;9.894;2023-04-05T03:41:37;102274.19;;;-1.91;76.80
21781;BME280;52576;53.614;9.894;2023-04-05T03:43:43;102272.47;;;-1.92;77.00
21781;BME280;52576;53.614;9.894;2023-04-05T03:45:46;102270.75;;;-1.93;77.20
21781;BME280;52576;53.614;9.894;2023-04-05T03:47:50;102279.31;;;-1.94;77.36
21781;BME280;52576;53.614;9.894;2023-04-05T03:49:53;102272.44;;;-1.95;77.17
21781;BME280;52576;53.614;9.894;2023-04-05T03:51:57;102275.84;;;-1.96;77.25
21781;BME280;52576;53.614;9.894;2023-04-05T03:54:00;102279.25;;;-2.00;77.29
21781;BME280;52576;53.614;9.894;2023-04-05T03:56:06;102277.53;;;-2.01;77.28
21781;BME280;52576;53.614;9.894;2023-04-05T03:58:24;102280.09;;;-2.01;77.34
21781;BME280;52576;53.614;9.894;2023-04-05T04:00:30;102274.94;;;-2.01;77.32
21781;BME280;52576;53.614;9.894;2023-04-05T04:02:54;102274.06;;;-2.03;77.22
21781;BME280;52576;53.614;9.894;2023-04-05T04:04:58;102272.34;;;-2.04;77.37
21781;BME280;52576;53.614;9.894;2023-04-05T04:07:02;102271.50;;;-2.05;77.56
21781;BME280;52576;53.614;9.894;2023-04-05T04:09:05;102263.78;;;-2.06;77.59
21781;BME280;52576;53.614;9.894;2023-04-05T04:11:09;102268.91;;;-2.06;77.59
21781;BME280;52576;53.614;9.894;2023-04-05T04:13:14;102262.91;;;-2.07;77.70
21781;BME280;52576;53.614;9.894;2023-04-05T04:15:25;102258.63;;;-2.06;77.67
21781;BME280;52576;53.614;9.894;2023-04-05T04:17:50;102262.03;;;-2.07;77.56
21781;BME280;52576;53.614;9.894;2023-04-05T04:20:22;102258.63;;;-2.06;77.55
21781;BME280;52576;53.614;9.894;2023-04-05T04:22:31;102256.06;;;-2.06;77.72
21781;BME280;52576;53.614;9.894;2023-04-05T04:24:54;102257.78;;;-2.05;77.50
21781;BME280;52576;53.614;9.894;2023-04-05T04:27:15;102256.06;;;-2.05;77.73
21781;BME280;52576;53.614;9.894;2023-04-05T04:29:48;102256.94;;;-2.04;77.71
21781;BME280;52576;53.614;9.894;2023-04-05T04:31:57;102251.81;;;-2.04;77.88
21781;BME280;52576;53.614;9.894;2023-04-05T04:34:21;102262.91;;;-2.05;77.73
21781;BME280;52576;53.614;9.894;2023-04-05T04:36:41;102258.66;;;-2.03;77.82
21781;BME280;52576;53.614;9.894;2023-04-05T04:38:58;102256.09;;;-2.03;77.89
21781;BME280;52576;53.614;9.894;2023-04-05T04:41:24;102262.13;;;-1.99;77.76
21781;BME280;52576;53.614;9.894;2023-04-05T04:43:40;102256.13;;;-1.98;78.02
21781;BME280;52576;53.614;9.894;2023-04-05T04:45:48;102257.88;;;-1.96;77.83
21781;BME280;52576;53.614;9.894;2023-04-05T04:48:07;102253.59;;;-1.94;78.02
21781;BME280;52576;53.614;9.894;2023-04-05T04:50:16;102255.34;;;-1.91;77.91
21781;BME280;52576;53.614;9.894;2023-04-05T04:52:20;102255.34;;;-1.90;77.97
21781;BME280;52576;53.614;9.894;2023-04-05T04:54:24;102250.25;;;-1.87;77.95
21781;BME280;52576;53.614;9.894;2023-04-05T04:56:30;102260.56;;;-1.81;77.91
21781;BME280;52576;53.614;9.894;2023-04-05T04:58:34;102252.88;;;-1.76;77.98
21781;BME280;52576;53.614;9.894;2023-04-05T05:00:41;102252.06;;;-1.71;77.89
21781;BME280;52576;53.614;9.894;2023-04-05T05:02:45;102248.72;;;-1.63;77.99
21781;BME280;52576;53.614;9.894;2023-04-05T05:04:50;102248.75;;;-1.57;78.08
21781;BME280;52576;53.614;9.894;2023-04-05T05:06:55;102252.22;;;-1.49;77.88
21781;BME280;52576;53.614;9.894;2023-04-05T05:08:58;102244.53;;;-1.43;77.66
21781;BME280;52576;53.614;9.894;2023-04-05T05:11:06;102252.31;;;-1.37;77.40
21781;BME280;52576;53.614;9.894;2023-04-05T05:13:09;102254.06;;;-1.31;77.51
21781;BME280;52576;53.614;9.894;2023-04-05T05:15:13;102257.50;;;-1.25;77.52
21781;BME280;52576;53.614;9.894;2023-04-05T05:17:17;102255.81;;;-1.20;77.30
21781;BME280;52576;53.614;9.894;2023-04-05T05:19:20;102255.84;;;-1.14;77.50
21781;BME280;52576;53.614;9.894;2023-04-05T05:21:27;102258.50;;;-1.05;77.53
21781;BME280;52576;53.614;9.894;2023-04-05T05:23:35;102253.34;;;-0.98;77.56
21781;BME280;52576;53.614;9.894;2023-04-05T05:25:38;102256.81;;;-0.92;77.50
21781;BME280;52576;53.614;9.894;2023-04-05T05:27:43;102258.56;;;-0.85;77.44
21781;BME280;52576;53.614;9.894;2023-04-05T05:29:50;102246.56;;;-0.77;77.16
21781;BME280;52576;53.614;9.894;2023-04-05T05:31:53;102247.44;;;-0.70;77.08
21781;BME280;52576;53.614;9.894;2023-04-05T05:33:56;102247.47;;;-0.64;76.78
21781;BME280;52576;53.614;9.894;2023-04-05T05:36:00;102244.06;;;-0.60;76.63
21781;BME280;52576;53.614;9.894;2023-04-05T05:38:04;102247.47;;;-0.52;76.44
21781;BME280;52576;53.614;9.894;2023-04-05T05:40:13;102247.50;;;-0.43;76.45
21781;BME280;52576;53.614;9.894;2023-04-05T05:42:17;102234.66;;;-0.33;76.49
21781;BME280;52576;53.614;9.894;2023-04-05T05:44:22;102243.25;;;-0.25;76.34
21781;BME280;52576;53.614;9.894;2023-04-05T05:46:25;102242.41;;;-0.18;76.29
21781;BME280;52576;53.614;9.894;2023-04-05T05:48:29;102242.41;;;-0.11;76.17
21781;BME280;52576;53.614;9.894;2023-04-05T05:50:32;102239.00;;;-0.02;76.28
21781;BME280;52576;53.614;9.894;2023-04-05T05:52:35;102237.25;;;0.06;76.15
21781;BME280;52576;53.614;9.894;2023-04-05T05:54:39;102236.41;;;0.15;76.03
21781;BME280;52576;53.614;9.894;2023-04-05T05:56:44;102232.97;;;0.25;75.86
21781;BME280;52576;53.614;9.894;2023-04-05T05:58:47;102233.78;;;0.34;75.69
21781;BME280;52576;53.614;9.894;2023-04-05T06:00:50;102233.78;;;0.44;75.62
21781;BME280;52576;53.614;9.894;2023-04-05T06:02:57;102232.03;;;0.55;75.59
21781;BME280;52576;53.614;9.894;2023-04-05T06:05:03;102235.47;;;0.66;75.49
21781;BME280;52576;53.614;9.894;2023-04-05T06:07:06;102229.38;;;0.81;75.12
21781;BME280;52576;53.614;9.894;2023-04-05T06:09:09;102235.38;;;0.93;74.91
21781;BME280;52576;53.614;9.894;2023-04-05T06:11:16;102228.41;;;1.05;74.60
21781;BME280;52576;53.614;9.894;2023-04-05T06:13:21;102221.50;;;1.16;74.29
21781;BME280;52576;53.614;9.894;2023-04-05T06:15:24;102217.13;;;1.30;73.74
21781;BME280;52576;53.614;9.894;2023-04-05T06:17:28;102217.91;;;1.41;73.64
21781;BME280;52576;53.614;9.894;2023-04-05T06:19:31;102217.00;;;1.50;72.94
21781;BME280;52576;53.614;9.894;2023-04-05T06:21:35;102211.81;;;1.56;72.06
21781;BME280;52576;53.614;9.894;2023-04-05T06:23:39;102213.47;;;1.60;71.61
21781;BME280;52576;53.614;9.894;2023-04-05T06:25:43;102210.00;;;1.65;70.95
21781;BME280;52576;53.614;9.894;2023-04-05T06:27:46;102214.28;;;1.71;70.25
21781;BME280;52576;53.614;9.894;2023-04-05T06:29:51;102218.53;;;1.78;69.64
21781;BME280;52576;53.614;9.894;2023-04-05T06:31:56;102213.28;;;1.87;69.10
21781;BME280;52576;53.614;9.894;2023-04-05T06:33:59;102214.06;;;1.97;68.69
21781;BME280;52576;53.614;9.894;2023-04-05T06:36:03;102211.34;;;2.11;68.14
21781;BME280;52576;53.614;9.894;2023-04-05T06:38:06;102215.56;;;2.22;67.80
21781;BME280;52576;53.614;9.894;2023-04-05T06:40:10;102215.44;;;2.34;67.31
21781;BME280;52576;53.614;9.894;2023-04-05T06:42:14;102210.97;;;2.50;66.86
21781;BME280;52576;53.614;9.894;2023-04-05T06:44:25;102222.00;;;2.66;66.54
21781;BME280;52576;53.614;9.894;2023-04-05T06:46:30;102215.81;;;2.81;66.15
21781;BME280;52576;53.614;9.894;2023-04-05T06:48:33;102209.63;;;2.92;65.69
21781;BME280;52576;53.614;9.894;2023-04-05T06:50:36;102209.47;;;3.04;65.13
21781;BME280;52576;53.614;9.894;2023-04-05T06:52:42;102211.06;;;3.15;64.62
21781;BME280;52576;53.614;9.894;2023-04-05T06:54:45;102212.66;;;3.25;64.42
21781;BME280;52576;53.614;9.894;2023-04-05T06:56:48;102207.38;;;3.34;64.10
21781;BME280;52576;53.614;9.894;2023-04-05T06:58:51;102200.31;;;3.42;64.00
21781;BME280;52576;53.614;9.894;2023-04-05T07:00:56;102203.63;;;3.53;63.91
21781;BME280;52576;53.614;9.894;2023-04-05T07:03:01;102210.31;;;3.66;63.68
21781;BME280;52576;53.614;9.894;2023-04-05T07:05:05;102203.19;;;3.81;63.37
21781;BME280;52576;53.614;9.894;2023-04-05T07:07:08;102201.22;;;3.95;62.92
21781;BME280;52576;53.614;9.894;2023-04-05T07:09:11;102199.28;;;4.09;62.32
21781;BME280;52576;53.614;9.894;2023-04-05T07:11:15;102199.91;;;4.22;61.36
21781;BME280;52576;53.614;9.894;2023-04-05T07:13:19;102213.56;;;4.31;60.39
21781;BME280;52576;53.614;9.894;2023-04-05T07:15:23;102217.78;;;4.38;59.42
21781;BME280;52576;53.614;9.894;2023-04-05T07:17:27;102209.84;;;4.44;59.01
21781;BME280;52576;53.614;9.894;2023-04-05T07:19:31;102217.53;;;4.51;58.27
21781;BME280;52576;53.614;9.894;2023-04-05T07:21:35;102220.91;;;4.56;58.08
21781;BME280;52576;53.614;9.894;2023-04-05T07:23:39;102222.59;;;4.58;58.16
21781;BME280;52576;53.614;9.894;2023-04-05T07:25:42;102224.22;;;4.64;57.95
21781;BME280;52576;53.614;9.894;2023-04-05T07:27:46;102222.38;;;4.69;58.09
21781;BME280;52576;53.614;9.894;2023-04-05T07:29:49;102217.00;;;4.78;57.51
21781;BME280;52576;53.614;9.894;2023-04-05T07:31:53;102220.25;;;4.89;56.67
21781;BME280;52576;53.614;9.894;2023-04-05T07:33:58;102221.72;;;5.02;56.60
21781;BME280;52576;53.614;9.894;2023-04-05T07:36:03;102217.91;;;5.19;56.46
21781;BME280;52576;53.614;9.894;2023-04-05T07:38:07;102224.47;;;5.35;56.66
21781;BME280;52576;53.614;9.894;2023-04-05T07:40:12;102226.72;;;5.50;56.54
21781;BME280;52576;53.614;9.894;2023-04-05T07:42:15;102220.44;;;5.60;56.25
21781;BME280;52576;53.614;9.894;2023-04-05T07:44:22;102223.72;;;5.68;56.21
21781;BME280;52576;53.614;9.894;2023-04-05T07:46:25;102228.69;;;5.77;55.92
21781;BME280;52576;53.614;9.894;2023-04-05T07:48:29;102230.28;;;5.85;55.04
21781;BME280;52576;53.614;9.894;2023-04-05T07:50:33;102222.34;;;5.91;53.62
21781;BME280;52576;53.614;9.894;2023-04-05T07:52:38;102220.50;;;5.96;52.76
21781;BME280;52576;53.614;9.894;2023-04-05T07:54:41;102224.81;;;5.97;52.59
21781;BME280;52576;53.614;9.894;2023-04-05T07:56:45;102221.34;;;5.96;52.09
21781;BME280;52576;53.614;9.894;2023-04-05T07:58:50;102223.09;;;5.96;51.48
21781;BME280;52576;53.614;9.894;2023-04-05T08:00:58;102210.16;;;5.93;50.88
21781;BME280;52576;53.614;9.894;2023-04-05T08:03:01;102216.34;;;5.89;50.85
21781;BME280;52576;53.614;9.894;2023-04-05T08:05:06;102214.66;;;5.85;51.03
21781;BME280;52576;53.614;9.894;2023-04-05T08:07:10;102218.19;;;5.82;50.83
21781;BME280;52576;53.614;9.894;2023-04-05T08:09:15;102211.31;;;5.79;50.67
21781;BME280;52576;53.614;9.894;2023-04-05T08:11:18;102217.44;;;5.77;50.41
21781;BME280;52576;53.614;9.894;2023-04-05T08:13:22;102214.94;;;5.72;50.21
21781;BME280;52576;53.614;9.894;2023-04-05T08:15:25;102202.06;;;5.68;50.18
21781;BME280;52576;53.614;9.894;2023-04-05T08:17:29;102210.78;;;5.65;50.14
21781;BME280;52576;53.614;9.894;2023-04-05T08:19:32;102206.47;;;5.64;50.28
21781;BME280;52576;53.614;9.894;2023-04-05T08:21:35;102208.19;;;5.65;50.18
21781;BME280;52576;53.614;9.894;2023-04-05T08:23:39;102208.19;;;5.65;49.83
21781;BME280;52576;53.614;9.894;2023-04-05T08:25:44;102203.00;;;5.65;49.87
21781;BME280;52576;53.614;9.894;2023-04-05T08:27:48;102203.00;;;5.65;49.85
21781;BME280;52576;53.614;9.894;2023-04-05T08:29:51;102206.44;;;5.66;49.72
21781;BME280;52576;53.614;9.894;2023-04-05T08:31:55;102202.09;;;5.66;49.87
21781;BME280;52576;53.614;9.894;2023-04-05T08:33:59;102202.09;;;5.66;49.85
21781;BME280;52576;53.614;9.894;2023-04-05T08:36:03;102199.50;;;5.66;49.63
21781;BME280;52576;53.614;9.894;2023-04-05T08:38:07;102203.00;;;5.65;49.43
21781;BME280;52576;53.614;9.894;2023-04-05T08:40:11;102202.97;;;5.67;49.60
21781;BME280;52576;53.614;9.894;2023-04-05T08:42:17;102197.72;;;5.68;49.31
21781;BME280;52576;53.614;9.894;2023-04-05T08:44:21;102196.81;;;5.69;49.39
21781;BME280;52576;53.614;9.894;2023-04-05T08:46:25;102190.66;;;5.72;49.26
21781;BME280;52576;53.614;9.894;2023-04-05T08:48:31;102188.84;;;5.75;48.62
21781;BME280;52576;53.614;9.894;2023-04-05T08:50:35;102185.28;;;5.79;48.56
21781;BME280;52576;53.614;9.894;2023-04-05T08:52:40;102186.94;;;5.84;48.52
21781;BME280;52576;53.614;9.894;2023-04-05T08:54:47;102179.00;;;5.90;48.19
21781;BME280;52576;53.614;9.894;2023-04-05T08:56:52;102179.75;;;5.95;48.04
21781;BME280;52576;53.614;9.894;2023-04-05T08:59:01;102184.78;;;6.01;47.63
21781;BME280;52576;53.614;9.894;2023-04-05T09:01:05;102183.78;;;6.06;46.87
21781;BME280;52576;53.614;9.894;2023-04-05T09:03:13;102179.34;;;6.10;45.79
21781;BME280;52576;53.614;9.894;2023-04-05T09:05:18;102184.41;;;6.16;45.30
21781;BME280;52576;53.614;9.894;2023-04-05T09:07:23;102177.34;;;6.21;44.82
21781;BME280;52576;53.614;9.894;2023-04-05T09:09:32;102177.19;;;6.26;45.24
21781;BME280;52576;53.614;9.894;2023-04-05T09:11:38;102173.53;;;6.33;44.14
21781;BME280;52576;53.614;9.894;2023-04-05T09:13:42;102176.91;;;6.36;44.97
21781;BME280;52576;53.614;9.894;2023-04-05T09:15:47;102178.53;;;6.40;45.65
21781;BME280;52576;53.614;9.894;2023-04-05T09:17:51;102179.31;;;6.44;45.56
21781;BME280;52576;53.614;9.894;2023-04-05T09:19:54;102181.81;;;6.49;45.68
21781;BME280;52576;53.614;9.894;2023-04-05T09:22:00;102174.69;;;6.54;46.15
21781;BME280;52576;53.614;9.894;2023-04-05T09:24:08;102172.75;;;6.62;46.07
21781;BME280;52576;53.614;9.894;2023-04-05T09:26:18;102182.09;;;6.69;45.83
21781;BME280;52576;53.614;9.894;2023-04-05T09:28:39;102179.34;;;6.75;45.62
21781;BME280;52576;53.614;9.894;2023-04-05T09:30:45;102172.22;;;6.80;45.61
21781;BME280;52576;53.614;9.894;2023-04-05T09:32:51;102173.78;;;6.86;45.88
21781;BME280;52576;53.614;9.894;2023-04-05T09:34:57;102166.66;;;6.92;46.19
21781;BME280;52576;53.614;9.894;2023-04-05T09:37:12;102171.59;;;7.01;45.76
21781;BME280;52576;53.614;9.894;2023-04-05T09:39:16;102161.88;;;7.06;45.27
21781;BME280;52576;53.614;9.894;2023-04-05T09:41:23;102164.31;;;7.12;45.41
21781;BME280;52576;53.614;9.894;2023-04-05T09:43:37;102163.22;;;7.20;45.35
21781;BME280;52576;53.614;9.894;2023-04-05T09:45:41;102156.94;;;7.27;45.39
21781;BME280;52576;53.614;9.894;2023-04-05T09:47:55;102163.63;;;7.34;44.92
21781;BME280;52576;53.614;9.894;2023-04-05T09:49:59;102159.94;;;7.41;44.75
21781;BME280;52576;53.614;9.894;2023-04-05T09:52:03;102157.25;;;7.44;44.56
21781;BME280;52576;53.614;9.894;2023-04-05T09:54:07;102151.03;;;7.48;44.42
21781;BME280;52576;53.614;9.894;2023-04-05T09:56:11;102146.56;;;7.52;44.17
21781;BME280;52576;53.614;9.894;2023-04-05T09:58:18;102149.00;;;7.56;43.68
21781;BME280;52576;53.614;9.894;2023-04-05T10:00:22;102147.09;;;7.61;43.68
21781;BME280;52576;53.614;9.894;2023-04-05T10:02:34;102152.13;;;7.67;43.40
21781;BME280;52576;53.614;9.894;2023-04-05T10:04:40;102155.53;;;7.69;43.44
21781;BME280;52576;53.614;9.894;2023-04-05T10:06:43;102146.81;;;7.70;43.83
21781;BME280;52576;53.614;9.894;2023-04-05T10:08:47;102143.22;;;7.74;43.77
21781;BME280;52576;53.614;9.894;2023-04-05T10:10:51;102140.38;;;7.80;43.67
21781;BME280;52576;53.614;9.894;2023-04-05T10:12:57;102139.25;;;7.88;43.43
21781;BME280;52576;53.614;9.894;2023-04-05T10:15:01;102141.63;;;7.95;43.58
21781;BME280;52576;53.614;9.894;2023-04-05T10:17:08;102134.50;;;8.00;43.30
21781;BME280;52576;53.614;9.894;2023-04-05T10:19:19;102135.13;;;8.07;43.08
21781;BME280;52576;53.614;9.894;2023-04-05T10:21:29;102131.38;;;8.14;42.74
21781;BME280;52576;53.614;9.894;2023-04-05T10:23:34;102133.75;;;8.22;42.81
21781;BME280;52576;53.614;9.894;2023-04-05T10:25:48;102130.75;;;8.32;42.88
21781;BME280;52576;53.614;9.894;2023-04-05T10:27:59;102128.53;;;8.46;42.70
21781;BME280;52576;53.614;9.894;2023-04-05T10:30:06;102131.47;;;8.61;42.77
21781;BME280;52576;53.614;9.894;2023-04-05T10:32:15;102125.81;;;8.73;42.29
21781;BME280;52576;53.614;9.894;2023-04-05T10:34:29;102119.31;;;8.83;41.82
21781;BME280;52576;53.614;9.894;2023-04-05T10:36:40;102117.94;;;8.96;41.69
21781;BME280;52576;53.614;9.894;2023-04-05T10:38:51;102123.59;;;9.07;41.89
21781;BME280;52576;53.614;9.894;2023-04-05T10:41:08;102118.91;;;9.15;41.59
21781;BME280;52576;53.614;9.894;2023-04-05T10:43:14;102112.81;;;9.15;41.24
21781;BME280;52576;53.614;9.894;2023-04-05T10:45:20;102114.84;;;9.08;41.19
21781;BME280;52576;53.614;9.894;2023-04-05T10:47:27;102114.28;;;9.00;41.48
21781;BME280;52576;53.614;9.894;2023-04-05T10:49:37;102109.16;;;8.97;41.51
21781;BME280;52576;53.614;9.894;2023-04-05T10:51:43;102106.50;;;8.99;41.47
21781;BME280;52576;53.614;9.894;2023-04-05T10:53:47;102102.75;;;9.06;41.43
21781;BME280;52576;53.614;9.894;2023-04-05T10:55:52;102095.38;;;9.15;41.29
21781;BME280;52576;53.614;9.894;2023-04-05T10:58:01;102099.44;;;9.23;41.22
21781;BME280;52576;53.614;9.894;2023-04-05T11:00:11;102090.31;;;9.33;41.59
21781;BME280;52576;53.614;9.894;2023-04-05T11:02:20;102089.03;;;9.43;40.85
21781;BME280;52576;53.614;9.894;2023-04-05T11:04:43;102087.13;;;9.46;40.29
21781;BME280;52576;53.614;9.894;2023-04-05T11:07:13;102081.22;;;9.41;40.10